Time;durP1;ratioP1;P1;durP2;ratioP2;P2;SDS_P1;SDS_P2;PMS_P1;PMS_P2;Temp;Humidity;BMP_temperature;BMP_pressure;BME280_temperature;BME280_humidity;BME280_pressure;Samples;Min_cycle;Max_cycle;Signal;HPM_P1;HPM_P2
2024/02/18 00:00:59;;;;;;;3.28;1.60;;;10.90;99.90;;;;;;5102726;28;20600;-69
2024/02/18 00:03:26;;;;;;;3.10;1.13;;;10.90;99.90;;;;;;5101433;28;20118;-68
2024/02/18 00:05:54;;;;;;;4.72;1.77;;;10.90;99.90;;;;;;5075171;28;20521;-69
2024/02/18 00:08:21;;;;;;;2.17;1.30;;;10.90;99.90;;;;;;5100574;28;20097;-69
2024/02/18 00:10:48;;;;;;;4.32;1.50;;;10.90;99.90;;;;;;5101253;28;20051;-66
2024/02/18 00:13:15;;;;;;;7.38;1.70;;;10.90;99.90;;;;;;5100819;28;20079;-68
2024/02/18 00:15:42;;;;;;;5.18;1.00;;;10.90;99.90;;;;;;5103519;28;20055;-69
2024/02/18 00:18:09;;;;;;;5.93;1.40;;;10.90;99.90;;;;;;5100295;28;20051;-69
2024/02/18 00:20:37;;;;;;;4.43;1.15;;;10.90;99.90;;;;;;5095489;28;20137;-70
2024/02/18 00:23:03;;;;;;;3.95;1.00;;;10.90;99.90;;;;;;5094073;28;20164;-69
2024/02/18 00:25:30;;;;;;;5.45;1.30;;;10.90;99.90;;;;;;5102450;28;20488;-69
2024/02/18 00:27:57;;;;;;;14.18;2.17;;;10.90;99.90;;;;;;5096943;28;20106;-71
2024/02/18 00:30:26;;;;;;;1.23;0.77;;;10.80;99.90;;;;;;5098722;28;20129;-69
2024/02/18 00:32:53;;;;;;;2.20;1.08;;;10.90;99.90;;;;;;5096047;28;20052;-68
2024/02/18 00:35:20;;;;;;;3.10;0.80;;;10.80;99.90;;;;;;5090961;28;20040;-70
2024/02/18 00:37:47;;;;;;;2.40;0.80;;;10.80;99.90;;;;;;5097173;28;20051;-70
2024/02/18 00:40:14;;;;;;;1.80;0.70;;;10.80;99.90;;;;;;5078397;28;20055;-69
2024/02/18 00:42:41;;;;;;;2.20;1.30;;;10.80;99.90;;;;;;5095703;28;20164;-70
2024/02/18 00:45:08;;;;;;;2.42;1.02;;;10.80;99.90;;;;;;5101759;28;20042;-71
2024/02/18 00:47:35;;;;;;;2.40;0.85;;;10.90;99.90;;;;;;5101941;28;20393;-70
2024/02/18 00:50:02;;;;;;;1.45;0.70;;;10.80;99.90;;;;;;5107441;28;20054;-70
2024/02/18 00:52:28;;;;;;;1.40;0.98;;;10.80;99.90;;;;;;5107341;28;20048;-69
2024/02/18 00:54:55;;;;;;;2.55;1.17;;;10.80;99.90;;;;;;5098042;28;20131;-71
2024/02/18 00:57:22;;;;;;;1.55;0.80;;;10.80;99.90;;;;;;5084041;28;20130;-71
2024/02/18 00:59:49;;;;;;;3.33;0.93;;;10.80;99.90;;;;;;5104380;28;20123;-71
2024/02/18 01:02:16;;;;;;;0.90;0.60;;;10.80;99.90;;;;;;5106939;28;20101;-71
2024/02/18 01:04:43;;;;;;;1.38;0.63;;;10.80;99.90;;;;;;5102067;28;20044;-71
2024/02/18 01:07:10;;;;;;;0.80;0.70;;;10.80;99.90;;;;;;5095031;28;20495;-71
2024/02/18 01:09:36;;;;;;;1.17;0.80;;;10.80;99.90;;;;;;5104940;28;20039;-71
2024/02/18 01:12:04;;;;;;;2.55;0.90;;;10.80;99.90;;;;;;5105519;28;20403;-72
2024/02/18 01:14:31;;;;;;;2.65;0.70;;;10.80;99.90;;;;;;5108209;28;20040;-70
2024/02/18 01:16:58;;;;;;;16.98;1.48;;;10.80;99.90;;;;;;5106309;28;20047;-70
2024/02/18 01:19:25;;;;;;;1.23;1.02;;;10.80;99.90;;;;;;5104677;28;20274;-70
2024/02/18 01:21:52;;;;;;;1.20;0.88;;;10.80;99.90;;;;;;5106126;28;20094;-70
2024/02/18 01:24:19;;;;;;;2.92;0.77;;;10.80;99.90;;;;;;5105665;28;20039;-70
2024/02/18 01:26:46;;;;;;;3.15;0.90;;;10.80;99.90;;;;;;5090685;28;20456;-69
2024/02/18 01:29:13;;;;;;;1.38;0.63;;;10.80;99.90;;;;;;5107840;28;20047;-70
2024/02/18 01:31:40;;;;;;;3.63;0.80;;;10.80;99.90;;;;;;5105125;28;20052;-69
2024/02/18 01:34:06;;;;;;;1.50;0.70;;;10.80;99.90;;;;;;5105046;28;20544;-69
2024/02/18 01:36:33;;;;;;;9.43;1.17;;;10.80;99.90;;;;;;5104231;28;20499;-70
2024/02/18 01:39:01;;;;;;;1.00;0.73;;;10.80;99.90;;;;;;5084460;28;20400;-70
2024/02/18 01:41:28;;;;;;;4.80;1.90;;;10.80;99.90;;;;;;5107752;28;20109;-70
2024/02/18 01:43:54;;;;;;;0.60;0.47;;;10.80;99.90;;;;;;5107707;28;20124;-70
2024/02/18 01:46:21;;;;;;;1.48;0.80;;;10.80;99.90;;;;;;5106699;28;20051;-69
2024/02/18 01:48:48;;;;;;;1.17;0.55;;;10.80;99.90;;;;;;5087116;28;20496;-69
2024/02/18 01:51:16;;;;;;;1.73;0.68;;;10.80;99.90;;;;;;5089988;28;20052;-71
2024/02/18 01:53:43;;;;;;;1.02;0.70;;;10.80;99.90;;;;;;5107389;28;20039;-69
2024/02/18 01:56:10;;;;;;;1.92;0.70;;;10.80;99.90;;;;;;5102380;28;20046;-69
2024/02/18 01:58:36;;;;;;;1.52;0.57;;;10.80;99.90;;;;;;5108123;28;20100;-69
2024/02/18 02:01:03;;;;;;;1.08;0.60;;;10.80;99.90;;;;;;5088443;28;20383;-70
2024/02/18 02:03:30;;;;;;;0.75;0.38;;;10.80;99.90;;;;;;5089188;28;20081;-70
2024/02/18 02:05:57;;;;;;;4.00;1.70;;;10.80;99.90;;;;;;5072834;28;20108;-70
2024/02/18 02:08:25;;;;;;;4.03;0.65;;;10.80;99.90;;;;;;5086020;28;20079;-68
2024/02/18 02:10:51;;;;;;;2.30;0.57;;;10.80;99.90;;;;;;5088393;28;20047;-70
2024/02/18 02:13:18;;;;;;;1.73;0.63;;;10.70;99.90;;;;;;5081713;28;20082;-69
2024/02/18 02:15:45;;;;;;;2.35;1.05;;;10.80;99.90;;;;;;5095946;28;20497;-70
2024/02/18 02:18:12;;;;;;;69.78;4.75;;;10.70;99.90;;;;;;5077669;28;20468;-69
2024/02/18 02:20:39;;;;;;;1.23;0.73;;;10.80;99.90;;;;;;5097411;28;20345;-69
2024/02/18 02:23:06;;;;;;;3.85;0.50;;;10.70;99.90;;;;;;5093582;28;20051;-70
2024/02/18 02:25:34;;;;;;;0.88;0.38;;;10.70;99.90;;;;;;5106749;28;20053;-71
2024/02/18 02:28:04;;;;;;;0.50;0.40;;;10.70;99.90;;;;;;5104799;28;20098;-70
2024/02/18 02:30:31;;;;;;;0.57;0.47;;;10.70;99.90;;;;;;5103462;28;20205;-71
2024/02/18 02:32:58;;;;;;;1.55;0.50;;;10.70;99.90;;;;;;5083316;28;20072;-70
2024/02/18 02:35:28;;;;;;;0.85;0.55;;;10.70;99.90;;;;;;5106691;28;20130;-70
2024/02/18 02:37:57;;;;;;;71.80;3.95;;;10.70;99.90;;;;;;5104959;28;20420;-70
2024/02/18 02:40:25;;;;;;;1.23;0.55;;;10.70;99.90;;;;;;5099724;28;20052;-71
2024/02/18 02:42:52;;;;;;;0.70;0.50;;;10.70;99.90;;;;;;5105986;28;20079;-70
2024/02/18 02:45:19;;;;;;;0.40;0.40;;;10.80;99.90;;;;;;5099242;28;20078;-70
2024/02/18 02:47:46;;;;;;;1.83;0.88;;;10.70;99.90;;;;;;5106270;28;20496;-70
2024/02/18 02:50:13;;;;;;;0.30;0.30;;;10.70;99.90;;;;;;5107616;28;20090;-70
2024/02/18 02:52:40;;;;;;;2.03;0.60;;;10.70;99.90;;;;;;5098931;28;20096;-70
2024/02/18 02:55:07;;;;;;;1.67;0.60;;;10.70;99.90;;;;;;5099228;28;20134;-71
2024/02/18 02:57:34;;;;;;;0.50;0.38;;;10.70;99.90;;;;;;5085853;28;20058;-69
2024/02/18 03:00:08;;;;;;;1.02;0.45;;;10.70;99.90;;;;;;5099766;28;20500;-71
2024/02/18 03:02:39;;;;;;;1.45;0.47;;;10.70;99.90;;;;;;5080330;28;20054;-69
2024/02/18 03:05:06;;;;;;;1.80;0.80;;;10.70;99.90;;;;;;5106024;28;20092;-70
2024/02/18 03:07:33;;;;;;;2.80;0.50;;;10.70;99.90;;;;;;5106955;28;20052;-70
2024/02/18 03:10:00;;;;;;;2.83;0.50;;;10.70;99.90;;;;;;5071616;28;20047;-69
2024/02/18 03:12:28;;;;;;;1.88;0.50;;;10.50;99.90;;;;;;5105041;28;20046;-70
2024/02/18 03:14:55;;;;;;;1.00;0.40;;;10.70;99.90;;;;;;5106045;28;20039;-70
2024/02/18 03:17:22;;;;;;;2.35;0.73;;;10.70;99.90;;;;;;5084953;28;20043;-69
2024/02/18 03:19:49;;;;;;;0.80;0.40;;;10.70;99.90;;;;;;5096795;28;20461;-70
2024/02/18 03:22:23;;;;;;;1.45;0.50;;;10.70;99.90;;;;;;5102581;28;20170;-70
2024/02/18 03:24:50;;;;;;;2.10;0.43;;;10.70;99.90;;;;;;5102432;28;20606;-69
2024/02/18 03:27:17;;;;;;;2.67;0.50;;;10.60;99.90;;;;;;5108860;28;20039;-70
2024/02/18 03:29:45;;;;;;;1.45;0.40;;;10.70;99.90;;;;;;5091128;28;20050;-70
2024/02/18 03:32:13;;;;;;;1.08;0.30;;;10.70;99.90;;;;;;5105659;28;20134;-70
2024/02/18 03:34:41;;;;;;;0.60;0.35;;;10.70;99.90;;;;;;5104236;28;20047;-71
2024/02/18 03:37:09;;;;;;;1.25;0.50;;;10.70;99.90;;;;;;5100408;28;20428;-70
2024/02/18 03:39:35;;;;;;;2.75;0.50;;;10.60;99.90;;;;;;5100916;28;20040;-70
2024/02/18 03:42:04;;;;;;;1.92;0.60;;;10.60;99.90;;;;;;5111164;28;20048;-69
2024/02/18 03:44:30;;;;;;;0.82;0.45;;;10.60;99.90;;;;;;5108440;28;20043;-70
2024/02/18 03:46:57;;;;;;;2.53;0.50;;;10.70;99.90;;;;;;5108803;28;20419;-69
2024/02/18 03:49:24;;;;;;;2.13;0.50;;;10.70;99.90;;;;;;5101587;28;20097;-70
2024/02/18 03:51:51;;;;;;;1.40;0.88;;;10.60;99.90;;;;;;5095055;28;20503;-70
2024/02/18 03:54:18;;;;;;;0.93;0.80;;;10.70;99.90;;;;;;5104737;28;20079;-70
2024/02/18 03:56:46;;;;;;;1.90;0.50;;;10.60;99.90;;;;;;5104781;28;20055;-70
2024/02/18 03:59:15;;;;;;;2.78;0.70;;;10.60;99.90;;;;;;5104758;28;20236;-70
2024/02/18 04:01:42;;;;;;;3.85;0.50;;;10.60;99.90;;;;;;5106658;28;20047;-71
2024/02/18 04:04:09;;;;;;;2.95;0.68;;;10.60;99.90;;;;;;5101455;28;20043;-69
2024/02/18 04:06:36;;;;;;;0.68;0.35;;;10.60;99.90;;;;;;5102274;28;20086;-69
2024/02/18 04:09:03;;;;;;;1.30;0.50;;;10.60;99.90;;;;;;5067452;28;20067;-70
2024/02/18 04:11:30;;;;;;;0.73;0.50;;;10.70;99.90;;;;;;5077497;28;20121;-71
2024/02/18 04:13:57;;;;;;;0.95;0.40;;;10.60;99.90;;;;;;5093680;28;20078;-70
2024/02/18 04:16:24;;;;;;;1.92;0.52;;;10.60;99.90;;;;;;5104712;28;20120;-70
2024/02/18 04:18:53;;;;;;;3.22;0.85;;;10.50;99.90;;;;;;5102630;28;20116;-70
2024/02/18 04:21:20;;;;;;;2.17;0.50;;;10.60;99.90;;;;;;5086754;28;20122;-68
2024/02/18 04:23:47;;;;;;;1.88;0.40;;;10.60;99.90;;;;;;5087663;28;20113;-70
2024/02/18 04:26:14;;;;;;;1.15;0.40;;;10.50;99.90;;;;;;5108352;28;20477;-70
2024/02/18 04:28:40;;;;;;;3.47;0.80;;;10.50;99.90;;;;;;5109266;28;20092;-70
2024/02/18 04:31:07;;;;;;;1.17;0.30;;;10.50;99.90;;;;;;5109197;28;20036;-70
2024/02/18 04:33:34;;;;;;;2.50;0.52;;;10.50;99.90;;;;;;5097011;28;20048;-69
2024/02/18 04:36:01;;;;;;;1.65;0.50;;;10.50;99.90;;;;;;5101018;28;20044;-71
2024/02/18 04:38:28;;;;;;;0.68;0.68;;;10.50;99.90;;;;;;5107170;28;20046;-70
2024/02/18 04:40:55;;;;;;;1.80;0.60;;;10.50;99.90;;;;;;5101092;28;20345;-72
2024/02/18 04:43:22;;;;;;;2.00;0.50;;;10.50;99.90;;;;;;5102257;28;20043;-70
2024/02/18 04:45:49;;;;;;;1.42;0.50;;;10.50;99.90;;;;;;5105119;28;20096;-70
2024/02/18 04:48:16;;;;;;;2.55;0.88;;;10.50;99.90;;;;;;5106559;28;20160;-70
2024/02/18 04:50:43;;;;;;;0.50;0.30;;;10.50;99.90;;;;;;5085279;28;20794;-69
2024/02/18 04:53:10;;;;;;;2.60;0.60;;;10.50;99.90;;;;;;5106587;28;20039;-70
2024/02/18 04:55:37;;;;;;;0.38;0.20;;;10.50;99.90;;;;;;5109239;28;20556;-71
2024/02/18 04:58:03;;;;;;;0.93;0.30;;;10.50;99.90;;;;;;5108145;28;20437;-70
2024/02/18 05:00:30;;;;;;;1.08;0.30;;;10.50;99.90;;;;;;5104048;28;20097;-71
2024/02/18 05:02:57;;;;;;;0.30;0.30;;;10.50;99.90;;;;;;5109266;28;20047;-70
2024/02/18 05:05:24;;;;;;;0.60;0.25;;;10.40;99.90;;;;;;5108286;28;20039;-70
2024/02/18 05:07:52;;;;;;;0.20;0.20;;;10.50;99.90;;;;;;5101735;28;20481;-70
2024/02/18 05:10:19;;;;;;;2.20;0.20;;;10.50;99.90;;;;;;5104748;28;20048;-70
2024/02/18 05:12:46;;;;;;;0.65;0.35;;;10.50;99.90;;;;;;5106138;28;20086;-71
2024/02/18 05:15:13;;;;;;;0.28;0.28;;;10.50;99.90;;;;;;5108415;28;20052;-71
2024/02/18 05:17:40;;;;;;;2.28;0.40;;;10.40;99.90;;;;;;5107923;28;20047;-71
2024/02/18 05:20:09;;;;;;;0.65;0.65;;;10.50;99.90;;;;;;5108024;28;20139;-71
2024/02/18 05:22:40;;;;;;;0.77;0.22;;;10.50;99.90;;;;;;5109117;28;20044;-72
2024/02/18 05:25:07;;;;;;;0.43;0.30;;;10.50;99.90;;;;;;5107702;28;20101;-71
2024/02/18 05:27:34;;;;;;;0.28;0.25;;;10.50;99.90;;;;;;5104774;28;20553;-70
2024/02/18 05:30:01;;;;;;;1.20;0.28;;;10.50;99.90;;;;;;5106569;28;20043;-71
2024/02/18 05:32:28;;;;;;;0.75;0.30;;;10.50;99.90;;;;;;5108201;28;20058;-69
2024/02/18 05:34:54;;;;;;;0.20;0.20;;;10.50;99.90;;;;;;5091722;28;20048;-71
2024/02/18 05:37:21;;;;;;;0.82;0.30;;;10.50;99.90;;;;;;5101229;28;20043;-70
2024/02/18 05:39:48;;;;;;;0.65;0.20;;;10.50;99.90;;;;;;5103754;28;20453;-70
2024/02/18 05:42:15;;;;;;;1.55;0.30;;;10.50;99.90;;;;;;5105741;28;20107;-70
2024/02/18 05:44:43;;;;;;;1.17;0.38;;;10.50;99.90;;;;;;5102939;28;20525;-70
2024/02/18 05:47:09;;;;;;;0.32;0.10;;;10.50;99.90;;;;;;5107631;28;20124;-71
2024/02/18 05:49:36;;;;;;;1.02;0.30;;;10.50;99.90;;;;;;5107308;28;20067;-70
2024/02/18 05:52:10;;;;;;;1.23;0.43;;;10.50;99.90;;;;;;5101949;28;20051;-71
2024/02/18 05:54:37;;;;;;;0.22;0.22;;;10.40;99.90;;;;;;5107568;28;20131;-70
2024/02/18 05:57:05;;;;;;;0.20;0.20;;;10.40;99.90;;;;;;5108204;28;20154;-70
2024/02/18 05:59:32;;;;;;;0.90;0.20;;;10.50;99.90;;;;;;5102887;28;20036;-70
2024/02/18 06:01:59;;;;;;;0.22;0.10;;;10.50;99.90;;;;;;5093684;28;20117;-70
2024/02/18 06:04:26;;;;;;;1.58;0.22;;;10.50;99.90;;;;;;5101925;28;20497;-70
2024/02/18 06:06:53;;;;;;;0.30;0.30;;;10.50;99.90;;;;;;5102981;28;20050;-69
2024/02/18 06:09:20;;;;;;;0.40;0.40;;;10.50;99.90;;;;;;5103902;28;20047;-70
2024/02/18 06:11:48;;;;;;;0.55;0.20;;;10.50;99.90;;;;;;5107150;28;20059;-70
2024/02/18 06:14:15;;;;;;;0.70;0.28;;;10.50;99.90;;;;;;5105724;28;20061;-70
2024/02/18 06:16:42;;;;;;;0.30;0.30;;;10.50;99.90;;;;;;5081506;28;20127;-70
2024/02/18 06:19:09;;;;;;;1.35;0.32;;;10.50;99.90;;;;;;5081403;28;20124;-71
2024/02/18 06:21:42;;;;;;;3.10;0.40;;;10.50;99.90;;;;;;5102917;28;20040;-70
2024/02/18 06:24:09;;;;;;;0.43;0.30;;;10.50;99.90;;;;;;5101682;28;20110;-69
2024/02/18 06:26:40;;;;;;;3.55;0.98;;;10.50;99.90;;;;;;5103236;28;20040;-70
2024/02/18 06:29:07;;;;;;;0.77;0.20;;;10.50;99.90;;;;;;5104692;28;20535;-70
2024/02/18 06:31:33;;;;;;;0.30;0.30;;;10.50;99.90;;;;;;5102756;28;20120;-69
2024/02/18 06:34:00;;;;;;;1.88;0.38;;;10.50;99.90;;;;;;5104715;28;20048;-70
2024/02/18 06:36:28;;;;;;;0.30;0.30;;;10.50;99.90;;;;;;5104830;28;20056;-69
2024/02/18 06:38:55;;;;;;;1.50;0.25;;;10.50;99.90;;;;;;5103246;28;20553;-72
2024/02/18 06:41:22;;;;;;;0.63;0.30;;;10.50;99.90;;;;;;5078650;28;20046;-70
2024/02/18 06:43:49;;;;;;;1.73;0.75;;;10.50;99.90;;;;;;5104352;28;20534;-71
2024/02/18 06:46:16;;;;;;;5.40;1.52;;;10.50;99.90;;;;;;5098167;28;20036;-71
2024/02/18 06:48:43;;;;;;;2.00;0.50;;;10.50;99.90;;;;;;5103121;28;20447;-71
2024/02/18 06:51:10;;;;;;;0.82;0.40;;;10.50;99.90;;;;;;5100965;28;20048;-72
2024/02/18 06:53:37;;;;;;;0.70;0.35;;;10.50;99.90;;;;;;5105458;28;20461;-71
2024/02/18 06:56:04;;;;;;;1.08;0.20;;;10.50;99.90;;;;;;5104584;28;20066;-72
2024/02/18 06:58:31;;;;;;;0.20;0.20;;;10.50;99.90;;;;;;5100822;28;20111;-72
2024/02/18 07:00:58;;;;;;;0.50;0.25;;;10.50;99.90;;;;;;5105835;28;20091;-71
2024/02/18 07:03:25;;;;;;;0.77;0.20;;;10.50;99.90;;;;;;5103088;28;20052;-71
2024/02/18 07:05:51;;;;;;;1.25;0.32;;;10.50;99.90;;;;;;5102115;28;20044;-71
2024/02/18 07:08:18;;;;;;;0.13;0.13;;;10.50;99.90;;;;;;5108343;28;20044;-71
2024/02/18 07:10:45;;;;;;;0.75;0.28;;;10.50;99.90;;;;;;5103729;28;20102;-70
2024/02/18 07:13:12;;;;;;;1.55;0.20;;;10.50;99.90;;;;;;5109985;28;20052;-69
2024/02/18 07:15:39;;;;;;;0.93;0.38;;;10.50;99.90;;;;;;5103636;28;20040;-71
2024/02/18 07:18:06;;;;;;;0.20;0.20;;;10.50;99.90;;;;;;5105818;28;20065;-69
2024/02/18 07:20:34;;;;;;;0.10;0.10;;;10.50;99.90;;;;;;5102033;28;20075;-69
2024/02/18 07:23:01;;;;;;;0.10;0.10;;;10.60;99.90;;;;;;5105020;28;20134;-70
2024/02/18 07:25:28;;;;;;;0.98;0.22;;;10.60;99.90;;;;;;5106996;28;20093;-70
2024/02/18 07:27:55;;;;;;;2.28;0.28;;;10.60;99.90;;;;;;5089371;28;20051;-70
2024/02/18 07:30:22;;;;;;;3.15;0.20;;;10.60;99.90;;;;;;5097646;28;20587;-70
2024/02/18 07:32:49;;;;;;;0.10;0.10;;;10.60;99.90;;;;;;5103263;28;20047;-70
2024/02/18 07:35:16;;;;;;;0.22;0.20;;;10.60;99.90;;;;;;5101621;28;20469;-71
2024/02/18 07:37:43;;;;;;;0.57;0.20;;;10.70;99.90;;;;;;5104011;28;20050;-70
2024/02/18 07:40:10;;;;;;;0.25;0.10;;;10.70;99.90;;;;;;5103563;28;20047;-71
2024/02/18 07:42:37;;;;;;;0.20;0.20;;;10.70;99.90;;;;;;5101451;28;20050;-71
2024/02/18 07:45:05;;;;;;;0.10;0.10;;;10.80;99.90;;;;;;5097839;28;20047;-70
2024/02/18 07:47:32;;;;;;;0.65;0.40;;;10.80;99.90;;;;;;5101190;28;20074;-71
2024/02/18 07:49:59;;;;;;;0.20;0.20;;;10.80;99.90;;;;;;5106748;28;20408;-71
2024/02/18 07:52:26;;;;;;;0.52;0.17;;;10.90;99.90;;;;;;5100791;28;20241;-71
2024/02/18 07:54:53;;;;;;;0.20;0.20;;;10.90;99.90;;;;;;5100375;28;20459;-70
2024/02/18 07:57:20;;;;;;;0.20;0.20;;;10.90;99.90;;;;;;5100914;28;20125;-71
2024/02/18 07:59:48;;;;;;;0.20;0.20;;;10.90;99.90;;;;;;5112218;28;20061;-69
2024/02/18 08:02:15;;;;;;;1.73;0.32;;;11.00;99.90;;;;;;5108487;28;20097;-70
2024/02/18 08:04:42;;;;;;;0.30;0.20;;;11.00;99.90;;;;;;5110517;28;20043;-70
2024/02/18 08:07:09;;;;;;;2.30;0.30;;;11.00;99.90;;;;;;5111229;28;20097;-69
2024/02/18 08:09:36;;;;;;;1.17;0.30;;;11.00;99.90;;;;;;5106183;28;20463;-70
2024/02/18 08:12:03;;;;;;;0.10;0.10;;;11.00;99.90;;;;;;5085589;28;20548;-70
2024/02/18 08:14:30;;;;;;;0.50;0.30;;;11.00;99.90;;;;;;5106697;28;20096;-71
2024/02/18 08:16:57;;;;;;;1.58;0.38;;;11.10;99.90;;;;;;5104589;28;20062;-69
2024/02/18 08:19:24;;;;;;;8.45;0.60;;;11.10;99.90;;;;;;5101793;28;20047;-70
2024/02/18 08:21:51;;;;;;;1.50;0.30;;;11.10;99.90;;;;;;5102391;28;20036;-68
2024/02/18 08:24:18;;;;;;;0.73;0.15;;;11.10;99.90;;;;;;5106971;28;20334;-70
2024/02/18 08:26:45;;;;;;;0.20;0.20;;;11.10;99.90;;;;;;5109005;28;20047;-69
2024/02/18 08:29:12;;;;;;;2.15;0.47;;;11.10;99.90;;;;;;5101283;28;20043;-69
2024/02/18 08:31:39;;;;;;;1.77;0.88;;;11.10;99.90;;;;;;5110574;28;20048;-70
2024/02/18 08:34:06;;;;;;;1.38;0.47;;;11.10;99.90;;;;;;5107719;28;20108;-71
2024/02/18 08:36:33;;;;;;;1.00;0.50;;;11.20;99.90;;;;;;5106814;28;20039;-70
2024/02/18 08:39:00;;;;;;;0.20;0.20;;;11.20;99.90;;;;;;5106332;28;20483;-70
2024/02/18 08:41:27;;;;;;;0.90;0.30;;;11.20;99.90;;;;;;5096325;28;20047;-68
2024/02/18 08:43:53;;;;;;;1.00;0.25;;;11.20;99.90;;;;;;5088735;28;20047;-70
2024/02/18 08:46:20;;;;;;;0.88;0.40;;;11.20;99.90;;;;;;5100032;28;20045;-68
2024/02/18 08:48:47;;;;;;;2.38;0.50;;;11.20;99.90;;;;;;5105424;28;20043;-69
2024/02/18 08:51:14;;;;;;;0.73;0.32;;;11.20;99.90;;;;;;5098242;28;20050;-69
2024/02/18 08:53:41;;;;;;;1.88;0.32;;;11.20;99.90;;;;;;5104497;28;20093;-71
2024/02/18 08:56:09;;;;;;;0.30;0.30;;;11.20;99.90;;;;;;5108328;28;20070;-68
2024/02/18 08:58:38;;;;;;;0.47;0.30;;;11.20;99.90;;;;;;5111674;28;20564;-69
2024/02/18 09:01:05;;;;;;;0.65;0.30;;;11.20;99.90;;;;;;5107431;28;20044;-69
2024/02/18 09:03:32;;;;;;;0.70;0.35;;;11.20;99.90;;;;;;5085614;28;20059;-69
2024/02/18 09:05:59;;;;;;;2.03;0.70;;;11.20;99.90;;;;;;5090291;28;20040;-70
2024/02/18 09:08:26;;;;;;;0.93;0.47;;;11.20;99.90;;;;;;5106008;28;20660;-69
2024/02/18 09:10:54;;;;;;;1.85;1.02;;;11.20;99.90;;;;;;5105835;28;20117;-69
2024/02/18 09:13:21;;;;;;;3.20;0.93;;;11.30;99.90;;;;;;5103096;28;20044;-69
2024/02/18 09:15:48;;;;;;;0.40;0.40;;;11.20;99.90;;;;;;5105029;28;20617;-69
2024/02/18 09:18:15;;;;;;;0.70;0.40;;;11.30;99.90;;;;;;5104943;28;20058;-69
2024/02/18 09:20:42;;;;;;;0.93;0.30;;;11.30;99.90;;;;;;5106383;28;20228;-69
2024/02/18 09:23:09;;;;;;;0.85;0.38;;;11.30;99.90;;;;;;5104698;28;20487;-70
2024/02/18 09:25:36;;;;;;;0.47;0.40;;;11.30;99.90;;;;;;5088172;28;20415;-70
2024/02/18 09:28:03;;;;;;;2.70;0.30;;;11.30;99.90;;;;;;5104317;28;20048;-69
2024/02/18 09:30:31;;;;;;;1.55;0.40;;;11.30;99.90;;;;;;5103451;28;20080;-70
2024/02/18 09:32:57;;;;;;;1.30;0.52;;;11.30;99.90;;;;;;5104455;28;20075;-70
2024/02/18 09:35:26;;;;;;;1.45;0.50;;;11.40;99.90;;;;;;5106980;28;20484;-69
2024/02/18 09:37:54;;;;;;;0.43;0.32;;;11.40;99.90;;;;;;5102980;28;20051;-70
2024/02/18 09:40:22;;;;;;;0.28;0.28;;;11.40;99.90;;;;;;5099069;28;20078;-70
2024/02/18 09:42:50;;;;;;;0.65;0.32;;;11.50;99.90;;;;;;5105951;28;20059;-70
2024/02/18 09:45:18;;;;;;;0.43;0.30;;;11.50;99.90;;;;;;5105232;28;20048;-70
2024/02/18 09:47:48;;;;;;;0.50;0.50;;;11.60;99.90;;;;;;5102635;28;20052;-71
2024/02/18 09:50:15;;;;;;;0.60;0.22;;;11.60;99.90;;;;;;5087780;28;20043;-70
2024/02/18 09:52:42;;;;;;;0.77;0.52;;;11.70;99.90;;;;;;5082859;28;20035;-70
2024/02/18 09:55:11;;;;;;;2.13;0.50;;;11.80;99.90;;;;;;5085802;28;20052;-70
2024/02/18 09:57:41;;;;;;;0.25;0.22;;;11.80;99.90;;;;;;5103032;28;20528;-70
2024/02/18 10:00:08;;;;;;;2.90;0.60;;;11.90;99.90;;;;;;5100830;28;20051;-70
2024/02/18 10:02:36;;;;;;;0.75;0.45;;;12.00;99.90;;;;;;5106615;28;20100;-70
2024/02/18 10:05:09;;;;;;;1.23;0.40;;;12.10;99.90;;;;;;5105998;28;20510;-69
2024/02/18 10:07:36;;;;;;;1.58;0.60;;;12.10;99.90;;;;;;5106013;28;20043;-70
2024/02/18 10:10:04;;;;;;;0.98;0.57;;;12.20;99.90;;;;;;5100433;28;20043;-70
2024/02/18 10:12:32;;;;;;;0.57;0.40;;;12.20;99.90;;;;;;5104339;28;20039;-69
2024/02/18 10:15:01;;;;;;;1.63;0.60;;;12.20;99.90;;;;;;5104641;28;20070;-69
2024/02/18 10:17:28;;;;;;;1.42;0.50;;;12.30;99.90;;;;;;5106014;28;20070;-69
2024/02/18 10:19:55;;;;;;;0.52;0.30;;;12.30;99.90;;;;;;5105804;28;20058;-70
2024/02/18 10:22:25;;;;;;;1.60;0.50;;;12.30;99.90;;;;;;5084871;28;20040;-69
2024/02/18 10:24:52;;;;;;;1.05;0.60;;;12.40;99.90;;;;;;5100717;28;20531;-67
2024/02/18 10:27:20;;;;;;;1.77;0.57;;;12.40;99.90;;;;;;5105588;28;20043;-70
2024/02/18 10:29:47;;;;;;;3.40;0.63;;;12.50;99.90;;;;;;5080733;28;20048;-69
2024/02/18 10:32:18;;;;;;;1.33;0.50;;;12.50;99.90;;;;;;4746998;28;10000113;-69
2024/02/18 10:34:45;;;;;;;12.52;4.85;;;12.50;99.90;;;;;;5097995;28;20073;-69
2024/02/18 10:37:36;;;;;;;6.28;2.38;;;12.50;99.90;;;;;;5104560;28;20126;-70
2024/02/18 10:40:15;;;;;;;1.20;0.57;;;12.50;99.90;;;;;;5101816;28;20148;-69
2024/02/18 10:42:43;;;;;;;4.95;2.25;;;12.60;99.90;;;;;;5097137;28;20044;-68
2024/02/18 10:45:11;;;;;;;1.60;0.70;;;12.60;99.90;;;;;;5083528;28;20131;-68
2024/02/18 10:47:41;;;;;;;1.10;0.52;;;12.60;99.90;;;;;;5089063;28;20043;-70
2024/02/18 10:50:08;;;;;;;1.88;0.43;;;12.60;99.90;;;;;;5072612;28;20040;-68
2024/02/18 10:53:14;;;;;;;2.47;0.40;;;12.60;99.90;;;;;;5069262;28;20480;-68
2024/02/18 10:56:10;;;;;;;2.40;0.60;;;12.60;99.90;;;;;;5087395;28;20050;-68
2024/02/18 10:59:03;;;;;;;3.65;0.90;;;12.70;99.90;;;;;;5105717;28;20104;-70
2024/02/18 11:01:30;;;;;;;1.90;0.80;;;12.70;99.90;;;;;;5072199;28;20079;-69
2024/02/18 11:03:59;;;;;;;3.30;0.93;;;12.70;99.90;;;;;;5091402;28;20044;-68
2024/02/18 11:06:28;;;;;;;0.95;0.63;;;12.80;99.90;;;;;;5083744;28;20567;-68
2024/02/18 11:08:55;;;;;;;1.15;0.57;;;12.80;99.90;;;;;;5086879;28;20130;-69
2024/02/18 11:11:22;;;;;;;2.15;0.90;;;12.80;99.90;;;;;;5087589;28;20420;-69
2024/02/18 11:13:50;;;;;;;7.13;2.20;;;12.90;99.90;;;;;;5102823;28;20047;-69
2024/02/18 11:16:19;;;;;;;0.68;0.40;;;12.90;99.90;;;;;;5106241;28;20552;-69
2024/02/18 11:18:46;;;;;;;1.00;0.50;;;12.90;99.90;;;;;;5104212;28;20672;-68
2024/02/18 11:21:14;;;;;;;1.50;0.60;;;12.90;99.90;;;;;;5104805;28;20092;-69
2024/02/18 11:23:51;;;;;;;2.60;0.93;;;13.00;99.90;;;;;;5085175;28;20522;-70
2024/02/18 11:26:18;;;;;;;0.85;0.50;;;13.00;99.90;;;;;;5103054;28;20075;-68
2024/02/18 11:28:45;;;;;;;0.77;0.50;;;13.00;99.90;;;;;;5102605;28;20054;-69
2024/02/18 11:31:21;;;;;;;2.70;0.60;;;13.20;99.90;;;;;;5077569;28;20496;-68
2024/02/18 11:33:48;;;;;;;0.75;0.57;;;13.30;99.90;;;;;;5083836;28;20043;-71
2024/02/18 11:36:16;;;;;;;1.50;0.57;;;13.40;99.90;;;;;;5101168;28;20542;-71
2024/02/18 11:38:47;;;;;;;1.50;0.50;;;13.60;99.90;;;;;;5095946;28;20122;-71
2024/02/18 11:41:26;;;;;;;1.00;0.70;;;13.60;99.90;;;;;;5078999;28;20055;-70
2024/02/18 11:43:57;;;;;;;0.82;0.50;;;13.60;99.90;;;;;;5094700;28;20051;-72
2024/02/18 11:46:25;;;;;;;0.85;0.60;;;13.60;99.90;;;;;;5099514;28;20101;-72
2024/02/18 11:48:53;;;;;;;1.65;0.60;;;13.70;99.90;;;;;;5093766;28;20047;-73
2024/02/18 11:51:20;;;;;;;0.43;0.32;;;13.70;99.90;;;;;;5079318;28;20062;-72
2024/02/18 11:53:47;;;;;;;1.38;0.70;;;13.70;99.90;;;;;;5099461;28;20055;-72
2024/02/18 11:56:14;;;;;;;4.45;0.75;;;13.70;99.90;;;;;;5083984;28;20082;-72
2024/02/18 11:58:42;;;;;;;1.33;0.73;;;13.70;99.90;;;;;;5065482;28;20533;-72
2024/02/18 12:01:09;;;;;;;4.70;0.73;;;13.70;99.90;;;;;;5076639;28;20040;-71
2024/02/18 12:03:36;;;;;;;2.75;0.60;;;13.70;99.90;;;;;;5083998;28;20059;-72
2024/02/18 12:06:04;;;;;;;2.35;0.73;;;13.80;99.90;;;;;;5099271;28;20046;-72
2024/02/18 12:08:31;;;;;;;0.57;0.50;;;13.80;99.90;;;;;;5102339;28;20047;-71
2024/02/18 12:11:00;;;;;;;2.28;0.60;;;13.80;99.90;;;;;;5100544;28;20112;-73
2024/02/18 12:13:27;;;;;;;1.77;0.60;;;13.80;99.90;;;;;;5094708;28;20043;-73
2024/02/18 12:15:57;;;;;;;1.90;0.50;;;13.80;99.90;;;;;;5079419;28;20048;-72
2024/02/18 12:18:25;;;;;;;3.47;1.00;;;13.80;99.90;;;;;;5075141;28;20054;-72
2024/02/18 12:20:53;;;;;;;0.70;0.55;;;13.70;99.90;;;;;;5083593;28;20741;-71
2024/02/18 12:23:23;;;;;;;2.53;0.77;;;13.70;99.90;;;;;;5098392;28;20048;-72
2024/02/18 12:25:50;;;;;;;2.05;0.70;;;13.70;99.90;;;;;;5096339;28;20549;-72
2024/02/18 12:28:17;;;;;;;2.25;0.75;;;13.70;99.90;;;;;;5095288;28;20501;-71
2024/02/18 12:30:45;;;;;;;4.20;0.50;;;13.60;99.90;;;;;;5094555;28;20084;-72
2024/02/18 12:33:12;;;;;;;2.35;0.80;;;13.70;99.90;;;;;;5098893;28;20052;-72
2024/02/18 12:35:40;;;;;;;1.77;0.75;;;13.70;99.90;;;;;;5103703;28;20063;-73
2024/02/18 12:38:07;;;;;;;2.20;0.70;;;13.70;99.90;;;;;;5079695;28;20096;-72
2024/02/18 12:40:34;;;;;;;0.95;0.57;;;13.80;99.90;;;;;;5085063;28;20047;-73
2024/02/18 12:43:02;;;;;;;3.67;0.90;;;13.90;99.90;;;;;;5095285;28;20129;-73
2024/02/18 12:45:50;;;;;;;2.08;0.68;;;14.00;99.90;;;;;;5101857;28;20075;-73
2024/02/18 12:48:28;;;;;;;2.17;1.00;;;14.10;99.90;;;;;;5104356;28;20051;-73